createdAt,value
2022-10-11T00:09:49.793Z,1.60
2022-10-11T00:19:52.851Z,1.50
2022-10-11T00:29:57.255Z,1.80
2022-10-11T00:40:00.908Z,1.77
2022-10-11T00:50:12.643Z,1.17
2022-10-11T01:00:16.840Z,1.83
2022-10-11T01:10:21.377Z,1.47
2022-10-11T01:20:39.203Z,1.47
2022-10-11T01:30:44.741Z,1.60
2022-10-11T01:40:52.682Z,1.40
2022-10-11T01:50:58.761Z,1.50
2022-10-11T02:01:10.689Z,1.53
2022-10-11T02:11:25.676Z,1.30
2022-10-11T02:21:28.922Z,1.63
2022-10-11T02:31:36.428Z,1.30
2022-10-11T02:41:43.142Z,1.30
2022-10-11T02:51:47.462Z,1.00
2022-10-11T03:01:51.690Z,1.63
2022-10-11T03:11:56.399Z,1.37
2022-10-11T03:21:59.392Z,1.00
2022-10-11T03:32:03.894Z,1.33
2022-10-11T03:42:06.913Z,1.40
2022-10-11T03:52:11.572Z,1.30
2022-10-11T04:02:14.532Z,1.73
2022-10-11T04:12:18.827Z,1.70
2022-10-11T04:22:21.657Z,1.83
2022-10-11T04:32:26.676Z,1.50
2022-10-11T04:42:32.403Z,9.07
2022-10-11T04:52:36.566Z,8.63
2022-10-11T05:02:39.659Z,8.07
2022-10-11T05:12:44.128Z,6.87
2022-10-11T05:22:47.462Z,6.07
2022-10-11T05:32:52.157Z,5.67
2022-10-11T05:42:55.156Z,4.67
2022-10-11T05:52:59.399Z,4.97
2022-10-11T06:03:02.351Z,4.60
2022-10-11T06:13:07.922Z,6.00
2022-10-11T06:23:10.910Z,6.27
2022-10-11T06:33:15.553Z,5.50
2022-10-11T06:43:18.676Z,5.80
2022-10-11T06:53:23.064Z,6.87
2022-10-11T07:03:26.170Z,21.10
2022-10-11T07:13:31.214Z,23.70
2022-10-11T07:23:34.632Z,22.03
2022-10-11T07:33:39.089Z,20.37
2022-10-11T07:43:43.615Z,19.70
2022-10-11T07:53:50.167Z,16.30
2022-10-11T08:03:53.972Z,21.50
2022-10-11T08:13:58.876Z,21.30
2022-10-11T08:24:03.215Z,18.73
2022-10-11T08:34:07.677Z,18.63
2022-10-11T08:44:58.373Z,17.60
2022-10-11T08:55:05.356Z,17.47
2022-10-11T09:05:15.191Z,17.43
2022-10-11T09:15:30.473Z,20.00
2022-10-11T09:25:36.454Z,18.20
2022-10-11T09:35:48.286Z,16.80
2022-10-11T09:45:51.902Z,15.90
2022-10-11T09:56:05.001Z,15.43
2022-10-11T10:06:11.559Z,12.33
2022-10-11T10:16:24.862Z,11.40
2022-10-11T10:26:28.690Z,8.23
2022-10-11T10:36:36.535Z,8.87
2022-10-11T10:46:50.370Z,9.87
2022-10-11T10:56:57.970Z,8.37
2022-10-11T11:07:08.280Z,7.53
2022-10-11T11:17:22.932Z,9.70
2022-10-11T11:27:40.808Z,9.60
2022-10-11T11:37:47.943Z,8.07
2022-10-11T11:47:54.041Z,7.90
2022-10-11T11:58:07.318Z,8.43
2022-10-11T12:08:26.663Z,6.00
2022-10-11T12:18:32.213Z,2.57
2022-10-11T12:29:02.441Z,3.23
2022-10-11T12:39:51.681Z,2.67
2022-10-11T12:50:11.314Z,2.13
2022-10-11T13:00:21.644Z,1.90
2022-10-11T13:10:31.398Z,1.80
2022-10-11T13:20:38.951Z,1.80
2022-10-11T13:30:49.663Z,1.93
2022-10-11T13:40:53.595Z,1.30
2022-10-11T13:51:08.861Z,1.67
2022-10-11T14:01:20.930Z,2.50
2022-10-11T14:11:37.601Z,1.30
2022-10-11T14:21:52.619Z,1.30
2022-10-11T14:32:02.655Z,1.23
2022-10-11T14:42:06.965Z,1.53
2022-10-11T14:52:14.758Z,1.30
2022-10-11T15:02:17.761Z,1.50
2022-10-11T15:12:22.087Z,1.13
2022-10-11T15:22:25.048Z,1.27
2022-10-11T15:32:29.171Z,1.07
2022-10-11T15:42:32.046Z,1.40
2022-10-11T15:52:36.259Z,1.40
2022-10-11T16:02:39.213Z,0.93
2022-10-11T16:12:43.526Z,1.20
2022-10-11T16:22:46.647Z,1.10
2022-10-11T16:32:51.171Z,1.03
2022-10-11T16:42:54.146Z,1.20
2022-10-11T16:52:59.677Z,2.13
2022-10-11T17:03:02.692Z,1.57
2022-10-11T17:13:07.022Z,5.27
2022-10-11T17:23:10.281Z,3.40
2022-10-11T17:33:14.550Z,3.77
2022-10-11T17:43:17.507Z,3.13
2022-10-11T17:53:22.935Z,4.13
2022-10-11T18:03:25.822Z,3.63
2022-10-11T18:13:30.603Z,4.90
2022-10-11T18:23:33.724Z,5.90
2022-10-11T18:33:38.414Z,3.63
2022-10-11T18:43:41.590Z,5.67
2022-10-11T18:53:46.646Z,3.83
2022-10-11T19:03:53.213Z,2.70
2022-10-11T19:13:59.206Z,3.23
2022-10-11T19:24:05.699Z,3.40
2022-10-11T19:34:10.332Z,4.33
2022-10-11T19:44:13.827Z,5.50
2022-10-11T19:54:18.941Z,3.83
2022-10-11T20:14:46.722Z,3.50
2022-10-11T20:24:54.233Z,4.83
2022-10-11T20:35:02.182Z,4.40
2022-10-11T20:45:05.752Z,5.17
2022-10-11T20:55:10.816Z,5.50
2022-10-11T21:05:13.770Z,4.13
2022-10-11T21:15:18.287Z,3.30
2022-10-11T21:25:21.485Z,3.27
2022-10-11T21:35:26.881Z,4.20
2022-10-11T21:45:29.806Z,3.23
2022-10-11T21:55:34.818Z,3.40
2022-10-11T22:05:44.276Z,4.03
2022-10-11T22:15:49.090Z,3.57
2022-10-11T22:25:52.042Z,5.23
2022-10-11T22:35:58.941Z,4.53
2022-10-11T22:46:02.705Z,4.80
2022-10-11T22:56:08.845Z,3.67
2022-10-11T23:06:11.818Z,3.93
2022-10-11T23:16:16.234Z,4.07
2022-10-11T23:26:19.230Z,4.43
2022-10-11T23:36:25.899Z,3.60
2022-10-11T23:46:29.460Z,4.03
2022-10-11T23:56:33.955Z,4.20
